sensor_id;sensor_type;location;lat;lon;timestamp;P1;durP1;ratioP1;P2;durP2;ratioP2
12367;SDS011;6248;49.812;6.620;2023-02-26T00:00:57;9.00;;;3.43;;
12367;SDS011;6248;49.812;6.620;2023-02-26T00:03:24;8.47;;;3.37;;
12367;SDS011;6248;49.812;6.620;2023-02-26T00:05:53;6.50;;;3.47;;
12367;SDS011;6248;49.812;6.620;2023-02-26T00:08:20;6.90;;;3.80;;
12367;SDS011;6248;49.812;6.620;2023-02-26T00:10:47;6.50;;;4.03;;
12367;SDS011;6248;49.812;6.620;2023-02-26T00:13:14;7.33;;;3.80;;
12367;SDS011;6248;49.812;6.620;2023-02-26T00:15:41;7.10;;;4.30;;
12367;SDS011;6248;49.812;6.620;2023-02-26T00:18:10;8.77;;;5.33;;
12367;SDS011;6248;49.812;6.620;2023-02-26T00:20:39;8.83;;;4.03;;
12367;SDS011;6248;49.812;6.620;2023-02-26T00:23:09;6.03;;;3.60;;
12367;SDS011;6248;49.812;6.620;2023-02-26T00:25:38;4.83;;;2.70;;
12367;SDS011;6248;49.812;6.620;2023-02-26T00:28:05;6.27;;;3.00;;
12367;SDS011;6248;49.812;6.620;2023-02-26T00:30:33;7.13;;;3.37;;
12367;SDS011;6248;49.812;6.620;2023-02-26T00:33:00;4.53;;;2.63;;
12367;SDS011;6248;49.812;6.620;2023-02-26T00:35:27;4.67;;;2.80;;
12367;SDS011;6248;49.812;6.620;2023-02-26T00:37:57;4.53;;;2.30;;
12367;SDS011;6248;49.812;6.620;2023-02-26T00:40:28;6.43;;;2.60;;
12367;SDS011;6248;49.812;6.620;2023-02-26T00:43:00;8.07;;;3.27;;
12367;SDS011;6248;49.812;6.620;2023-02-26T00:45:27;7.17;;;3.20;;
12367;SDS011;6248;49.812;6.620;2023-02-26T00:47:59;4.93;;;2.83;;
12367;SDS011;6248;49.812;6.620;2023-02-26T00:50:32;6.03;;;3.47;;
12367;SDS011;6248;49.812;6.620;2023-02-26T00:53:01;8.17;;;4.57;;
12367;SDS011;6248;49.812;6.620;2023-02-26T00:55:30;8.30;;;4.43;;
12367;SDS011;6248;49.812;6.620;2023-02-26T00:57:58;10.00;;;3.60;;
12367;SDS011;6248;49.812;6.620;2023-02-26T01:00:25;6.53;;;2.90;;
12367;SDS011;6248;49.812;6.620;2023-02-26T01:02:52;4.37;;;2.53;;
12367;SDS011;6248;49.812;6.620;2023-02-26T01:05:20;5.53;;;2.67;;
12367;SDS011;6248;49.812;6.620;2023-02-26T01:07:51;4.67;;;2.40;;
12367;SDS011;6248;49.812;6.620;2023-02-26T01:10:20;3.30;;;1.90;;
12367;SDS011;6248;49.812;6.620;2023-02-26T01:12:49;5.37;;;2.20;;
12367;SDS011;6248;49.812;6.620;2023-02-26T01:15:16;5.40;;;2.40;;
12367;SDS011;6248;49.812;6.620;2023-02-26T01:17:44;5.37;;;2.73;;
12367;SDS011;6248;49.812;6.620;2023-02-26T01:20:15;7.20;;;2.70;;
12367;SDS011;6248;49.812;6.620;2023-02-26T01:22:45;4.60;;;2.30;;
12367;SDS011;6248;49.812;6.620;2023-02-26T01:25:15;4.37;;;2.17;;
12367;SDS011;6248;49.812;6.620;2023-02-26T01:27:44;5.00;;;2.30;;
12367;SDS011;6248;49.812;6.620;2023-02-26T01:30:13;6.13;;;2.47;;
12367;SDS011;6248;49.812;6.620;2023-02-26T01:32:41;4.30;;;2.20;;
12367;SDS011;6248;49.812;6.620;2023-02-26T01:35:12;6.23;;;2.90;;
12367;SDS011;6248;49.812;6.620;2023-02-26T01:37:46;4.37;;;2.83;;
12367;SDS011;6248;49.812;6.620;2023-02-26T01:40:22;5.27;;;2.50;;
12367;SDS011;6248;49.812;6.620;2023-02-26T01:42:56;7.47;;;3.60;;
12367;SDS011;6248;49.812;6.620;2023-02-26T01:45:28;7.23;;;2.90;;
12367;SDS011;6248;49.812;6.620;2023-02-26T01:47:58;6.13;;;3.40;;
12367;SDS011;6248;49.812;6.620;2023-02-26T01:50:27;7.47;;;3.10;;
12367;SDS011;6248;49.812;6.620;2023-02-26T01:55:36;4.73;;;2.37;;
12367;SDS011;6248;49.812;6.620;2023-02-26T01:58:03;5.80;;;2.20;;
12367;SDS011;6248;49.812;6.620;2023-02-26T02:00:31;4.93;;;2.33;;
12367;SDS011;6248;49.812;6.620;2023-02-26T02:02:58;4.07;;;2.37;;
12367;SDS011;6248;49.812;6.620;2023-02-26T02:05:27;4.83;;;2.30;;
12367;SDS011;6248;49.812;6.620;2023-02-26T02:07:55;2.57;;;1.80;;
12367;SDS011;6248;49.812;6.620;2023-02-26T02:10:22;9.50;;;2.17;;
12367;SDS011;6248;49.812;6.620;2023-02-26T02:12:50;3.03;;;1.90;;
12367;SDS011;6248;49.812;6.620;2023-02-26T02:15:20;7.50;;;2.03;;
12367;SDS011;6248;49.812;6.620;2023-02-26T02:17:54;5.00;;;2.00;;
12367;SDS011;6248;49.812;6.620;2023-02-26T02:20:26;5.10;;;2.00;;
12367;SDS011;6248;49.812;6.620;2023-02-26T02:23:04;5.27;;;2.17;;
12367;SDS011;6248;49.812;6.620;2023-02-26T02:25:41;4.53;;;2.00;;
12367;SDS011;6248;49.812;6.620;2023-02-26T02:28:17;3.77;;;1.90;;
12367;SDS011;6248;49.812;6.620;2023-02-26T02:33:33;4.07;;;2.10;;
12367;SDS011;6248;49.812;6.620;2023-02-26T02:36:04;4.80;;;2.67;;
12367;SDS011;6248;49.812;6.620;2023-02-26T02:38:33;7.00;;;3.13;;
12367;SDS011;6248;49.812;6.620;2023-02-26T02:41:05;5.37;;;2.50;;
12367;SDS011;6248;49.812;6.620;2023-02-26T02:43:33;4.77;;;2.97;;
12367;SDS011;6248;49.812;6.620;2023-02-26T02:46:03;8.03;;;2.40;;
12367;SDS011;6248;49.812;6.620;2023-02-26T02:48:33;4.10;;;2.20;;
12367;SDS011;6248;49.812;6.620;2023-02-26T02:51:03;6.17;;;2.23;;
12367;SDS011;6248;49.812;6.620;2023-02-26T02:53:32;3.10;;;2.00;;
12367;SDS011;6248;49.812;6.620;2023-02-26T02:56:01;3.97;;;2.00;;
12367;SDS011;6248;49.812;6.620;2023-02-26T02:58:31;6.03;;;2.30;;
12367;SDS011;6248;49.812;6.620;2023-02-26T03:01:02;4.23;;;2.30;;
12367;SDS011;6248;49.812;6.620;2023-02-26T03:03:33;7.57;;;2.50;;
12367;SDS011;6248;49.812;6.620;2023-02-26T03:06:01;5.97;;;2.27;;
12367;SDS011;6248;49.812;6.620;2023-02-26T03:08:30;5.20;;;2.50;;
12367;SDS011;6248;49.812;6.620;2023-02-26T03:11:00;6.53;;;2.30;;
12367;SDS011;6248;49.812;6.620;2023-02-26T03:13:27;7.83;;;2.43;;
12367;SDS011;6248;49.812;6.620;2023-02-26T03:15:58;4.87;;;2.43;;
12367;SDS011;6248;49.812;6.620;2023-02-26T03:18:30;5.53;;;2.40;;
12367;SDS011;6248;49.812;6.620;2023-02-26T03:21:03;2.90;;;1.97;;
12367;SDS011;6248;49.812;6.620;2023-02-26T03:23:33;5.47;;;2.43;;
12367;SDS011;6248;49.812;6.620;2023-02-26T03:26:02;7.53;;;2.60;;
12367;SDS011;6248;49.812;6.620;2023-02-26T03:28:37;5.63;;;2.73;;
12367;SDS011;6248;49.812;6.620;2023-02-26T03:31:06;6.47;;;2.33;;
12367;SDS011;6248;49.812;6.620;2023-02-26T03:33:37;3.63;;;2.60;;
12367;SDS011;6248;49.812;6.620;2023-02-26T03:36:07;5.87;;;2.80;;
12367;SDS011;6248;49.812;6.620;2023-02-26T03:38:38;5.37;;;2.70;;
12367;SDS011;6248;49.812;6.620;2023-02-26T03:41:08;5.20;;;2.47;;
12367;SDS011;6248;49.812;6.620;2023-02-26T03:43:37;2.77;;;2.30;;
12367;SDS011;6248;49.812;6.620;2023-02-26T03:46:07;5.10;;;2.60;;
12367;SDS011;6248;49.812;6.620;2023-02-26T03:48:35;5.23;;;2.30;;
12367;SDS011;6248;49.812;6.620;2023-02-26T03:51:03;5.03;;;2.47;;
12367;SDS011;6248;49.812;6.620;2023-02-26T03:53:33;3.40;;;2.73;;
12367;SDS011;6248;49.812;6.620;2023-02-26T03:56:03;5.30;;;2.50;;
12367;SDS011;6248;49.812;6.620;2023-02-26T03:58:31;4.27;;;2.47;;
12367;SDS011;6248;49.812;6.620;2023-02-26T04:01:00;4.70;;;2.60;;
12367;SDS011;6248;49.812;6.620;2023-02-26T04:03:28;3.77;;;2.40;;
12367;SDS011;6248;49.812;6.620;2023-02-26T04:05:58;3.20;;;2.30;;
12367;SDS011;6248;49.812;6.620;2023-02-26T04:08:27;6.53;;;2.73;;
12367;SDS011;6248;49.812;6.620;2023-02-26T04:10:55;2.70;;;2.23;;
12367;SDS011;6248;49.812;6.620;2023-02-26T04:13:23;3.80;;;2.47;;
12367;SDS011;6248;49.812;6.620;2023-02-26T04:15:52;3.17;;;2.23;;
12367;SDS011;6248;49.812;6.620;2023-02-26T04:18:19;4.00;;;2.50;;
12367;SDS011;6248;49.812;6.620;2023-02-26T04:20:46;3.50;;;2.37;;
12367;SDS011;6248;49.812;6.620;2023-02-26T04:23:13;5.70;;;2.47;;
12367;SDS011;6248;49.812;6.620;2023-02-26T04:25:40;4.23;;;2.70;;
12367;SDS011;6248;49.812;6.620;2023-02-26T04:28:09;3.23;;;2.20;;
12367;SDS011;6248;49.812;6.620;2023-02-26T04:30:36;5.00;;;2.63;;
12367;SDS011;6248;49.812;6.620;2023-02-26T04:33:03;3.10;;;2.30;;
12367;SDS011;6248;49.812;6.620;2023-02-26T04:35:31;3.37;;;2.23;;
12367;SDS011;6248;49.812;6.620;2023-02-26T04:37:58;4.30;;;2.60;;
12367;SDS011;6248;49.812;6.620;2023-02-26T04:40:25;5.13;;;2.43;;
12367;SDS011;6248;49.812;6.620;2023-02-26T04:42:52;4.23;;;2.40;;
12367;SDS011;6248;49.812;6.620;2023-02-26T04:45:21;4.90;;;2.43;;
12367;SDS011;6248;49.812;6.620;2023-02-26T04:47:48;2.80;;;2.43;;
12367;SDS011;6248;49.812;6.620;2023-02-26T04:50:15;3.00;;;2.10;;
12367;SDS011;6248;49.812;6.620;2023-02-26T04:52:42;4.37;;;2.40;;
12367;SDS011;6248;49.812;6.620;2023-02-26T04:55:09;4.43;;;2.23;;
12367;SDS011;6248;49.812;6.620;2023-02-26T04:57:36;4.67;;;2.50;;
12367;SDS011;6248;49.812;6.620;2023-02-26T05:00:04;2.87;;;2.57;;
12367;SDS011;6248;49.812;6.620;2023-02-26T05:02:33;2.50;;;2.30;;
12367;SDS011;6248;49.812;6.620;2023-02-26T05:05:00;5.87;;;2.40;;
12367;SDS011;6248;49.812;6.620;2023-02-26T05:07:28;4.17;;;2.20;;
12367;SDS011;6248;49.812;6.620;2023-02-26T05:09:55;4.63;;;2.40;;
12367;SDS011;6248;49.812;6.620;2023-02-26T05:12:22;3.57;;;2.23;;
12367;SDS011;6248;49.812;6.620;2023-02-26T05:14:49;5.47;;;2.33;;
12367;SDS011;6248;49.812;6.620;2023-02-26T05:17:16;2.80;;;2.50;;
12367;SDS011;6248;49.812;6.620;2023-02-26T05:19:45;3.83;;;2.37;;
12367;SDS011;6248;49.812;6.620;2023-02-26T05:22:15;2.80;;;2.33;;
12367;SDS011;6248;49.812;6.620;2023-02-26T05:24:43;3.43;;;2.23;;
12367;SDS011;6248;49.812;6.620;2023-02-26T05:27:10;2.83;;;2.23;;
12367;SDS011;6248;49.812;6.620;2023-02-26T05:29:37;4.43;;;2.40;;
12367;SDS011;6248;49.812;6.620;2023-02-26T05:32:06;4.30;;;2.40;;
12367;SDS011;6248;49.812;6.620;2023-02-26T05:34:33;2.80;;;2.40;;
12367;SDS011;6248;49.812;6.620;2023-02-26T05:37:02;5.03;;;3.13;;
12367;SDS011;6248;49.812;6.620;2023-02-26T05:39:29;3.40;;;2.40;;
12367;SDS011;6248;49.812;6.620;2023-02-26T05:41:56;3.67;;;2.50;;
12367;SDS011;6248;49.812;6.620;2023-02-26T05:44:23;3.43;;;2.53;;
12367;SDS011;6248;49.812;6.620;2023-02-26T05:46:50;4.50;;;2.60;;
12367;SDS011;6248;49.812;6.620;2023-02-26T05:49:18;4.03;;;2.47;;
12367;SDS011;6248;49.812;6.620;2023-02-26T05:51:45;3.77;;;2.37;;
12367;SDS011;6248;49.812;6.620;2023-02-26T05:54:13;4.90;;;2.20;;
12367;SDS011;6248;49.812;6.620;2023-02-26T05:56:40;4.50;;;2.20;;
12367;SDS011;6248;49.812;6.620;2023-02-26T05:59:08;3.03;;;2.40;;
12367;SDS011;6248;49.812;6.620;2023-02-26T06:01:35;5.97;;;2.90;;
12367;SDS011;6248;49.812;6.620;2023-02-26T06:04:02;3.10;;;2.40;;
12367;SDS011;6248;49.812;6.620;2023-02-26T06:06:29;3.87;;;2.33;;
12367;SDS011;6248;49.812;6.620;2023-02-26T06:08:57;3.57;;;2.47;;
12367;SDS011;6248;49.812;6.620;2023-02-26T06:11:26;3.97;;;2.33;;
12367;SDS011;6248;49.812;6.620;2023-02-26T06:13:53;2.70;;;2.50;;
12367;SDS011;6248;49.812;6.620;2023-02-26T06:16:21;4.60;;;2.40;;
12367;SDS011;6248;49.812;6.620;2023-02-26T06:18:48;4.67;;;2.50;;
12367;SDS011;6248;49.812;6.620;2023-02-26T06:21:16;3.50;;;2.70;;
12367;SDS011;6248;49.812;6.620;2023-02-26T06:23:43;5.30;;;2.60;;
12367;SDS011;6248;49.812;6.620;2023-02-26T06:26:10;3.87;;;2.70;;
12367;SDS011;6248;49.812;6.620;2023-02-26T06:28:39;3.07;;;2.47;;
12367;SDS011;6248;49.812;6.620;2023-02-26T06:31:06;3.87;;;2.80;;
12367;SDS011;6248;49.812;6.620;2023-02-26T06:33:33;3.80;;;2.70;;
12367;SDS011;6248;49.812;6.620;2023-02-26T06:36:00;3.40;;;2.50;;
12367;SDS011;6248;49.812;6.620;2023-02-26T06:38:27;3.40;;;2.43;;
12367;SDS011;6248;49.812;6.620;2023-02-26T06:40:55;5.00;;;2.90;;
12367;SDS011;6248;49.812;6.620;2023-02-26T06:43:22;4.00;;;2.50;;
12367;SDS011;6248;49.812;6.620;2023-02-26T06:45:50;3.10;;;2.40;;
12367;SDS011;6248;49.812;6.620;2023-02-26T06:48:17;3.53;;;2.60;;
12367;SDS011;6248;49.812;6.620;2023-02-26T06:50:44;2.80;;;2.37;;
12367;SDS011;6248;49.812;6.620;2023-02-26T06:53:11;3.20;;;2.40;;
12367;SDS011;6248;49.812;6.620;2023-02-26T06:55:41;3.00;;;2.50;;
12367;SDS011;6248;49.812;6.620;2023-02-26T06:58:08;4.07;;;2.60;;
12367;SDS011;6248;49.812;6.620;2023-02-26T07:00:35;3.13;;;2.33;;
12367;SDS011;6248;49.812;6.620;2023-02-26T07:03:04;2.77;;;2.33;;
12367;SDS011;6248;49.812;6.620;2023-02-26T07:05:31;3.13;;;2.40;;
12367;SDS011;6248;49.812;6.620;2023-02-26T07:07:59;3.53;;;2.70;;
12367;SDS011;6248;49.812;6.620;2023-02-26T07:10:26;3.27;;;2.37;;
12367;SDS011;6248;49.812;6.620;2023-02-26T07:12:53;6.50;;;2.57;;
12367;SDS011;6248;49.812;6.620;2023-02-26T07:15:20;4.13;;;3.00;;
12367;SDS011;6248;49.812;6.620;2023-02-26T07:17:47;3.17;;;2.30;;
12367;SDS011;6248;49.812;6.620;2023-02-26T07:20:16;5.10;;;3.90;;
12367;SDS011;6248;49.812;6.620;2023-02-26T07:22:43;4.23;;;3.13;;
12367;SDS011;6248;49.812;6.620;2023-02-26T07:25:11;4.67;;;2.90;;
12367;SDS011;6248;49.812;6.620;2023-02-26T07:27:38;5.13;;;2.77;;
12367;SDS011;6248;49.812;6.620;2023-02-26T07:30:06;5.57;;;3.20;;
12367;SDS011;6248;49.812;6.620;2023-02-26T07:32:34;3.10;;;2.50;;
12367;SDS011;6248;49.812;6.620;2023-02-26T07:35:02;4.03;;;2.40;;
12367;SDS011;6248;49.812;6.620;2023-02-26T07:37:32;3.33;;;2.50;;
12367;SDS011;6248;49.812;6.620;2023-02-26T07:39:59;4.10;;;2.40;;
12367;SDS011;6248;49.812;6.620;2023-02-26T07:42:27;4.23;;;2.57;;
12367;SDS011;6248;49.812;6.620;2023-02-26T07:44:54;2.80;;;2.50;;
12367;SDS011;6248;49.812;6.620;2023-02-26T07:47:21;3.33;;;2.50;;
12367;SDS011;6248;49.812;6.620;2023-02-26T07:49:48;4.20;;;2.30;;
12367;SDS011;6248;49.812;6.620;2023-02-26T07:52:15;3.83;;;2.67;;
12367;SDS011;6248;49.812;6.620;2023-02-26T07:54:44;5.67;;;2.77;;
12367;SDS011;6248;49.812;6.620;2023-02-26T07:57:11;2.43;;;2.20;;
12367;SDS011;6248;49.812;6.620;2023-02-26T07:59:38;2.93;;;2.50;;
12367;SDS011;6248;49.812;6.620;2023-02-26T08:02:05;2.40;;;2.20;;
12367;SDS011;6248;49.812;6.620;2023-02-26T08:04:32;3.70;;;2.63;;
12367;SDS011;6248;49.812;6.620;2023-02-26T08:06:59;2.50;;;2.30;;
12367;SDS011;6248;49.812;6.620;2023-02-26T08:09:26;5.97;;;2.20;;
12367;SDS011;6248;49.812;6.620;2023-02-26T08:11:56;2.97;;;2.10;;
12367;SDS011;6248;49.812;6.620;2023-02-26T08:14:23;3.73;;;2.17;;
12367;SDS011;6248;49.812;6.620;2023-02-26T08:16:50;3.17;;;2.20;;
12367;SDS011;6248;49.812;6.620;2023-02-26T08:19:17;2.63;;;2.17;;
12367;SDS011;6248;49.812;6.620;2023-02-26T08:21:44;4.07;;;2.50;;
12367;SDS011;6248;49.812;6.620;2023-02-26T08:24:11;2.90;;;2.60;;
12367;SDS011;6248;49.812;6.620;2023-02-26T08:26:39;2.93;;;2.67;;
12367;SDS011;6248;49.812;6.620;2023-02-26T08:29:07;3.17;;;2.10;;
12367;SDS011;6248;49.812;6.620;2023-02-26T08:31:34;3.07;;;2.10;;
12367;SDS011;6248;49.812;6.620;2023-02-26T08:34:01;2.57;;;2.30;;
12367;SDS011;6248;49.812;6.620;2023-02-26T08:36:29;3.03;;;2.10;;
12367;SDS011;6248;49.812;6.620;2023-02-26T08:38:57;2.17;;;1.97;;
12367;SDS011;6248;49.812;6.620;2023-02-26T08:41:24;5.70;;;2.43;;
12367;SDS011;6248;49.812;6.620;2023-02-26T08:43:54;2.40;;;2.07;;
12367;SDS011;6248;49.812;6.620;2023-02-26T08:46:22;4.40;;;2.43;;
12367;SDS011;6248;49.812;6.620;2023-02-26T08:48:50;4.43;;;2.60;;
12367;SDS011;6248;49.812;6.620;2023-02-26T08:51:18;2.80;;;2.10;;
12367;SDS011;6248;49.812;6.620;2023-02-26T08:53:45;3.13;;;2.17;;
12367;SDS011;6248;49.812;6.620;2023-02-26T08:56:14;5.03;;;2.40;;
12367;SDS011;6248;49.812;6.620;2023-02-26T08:58:42;2.30;;;1.73;;
12367;SDS011;6248;49.812;6.620;2023-02-26T09:01:09;2.50;;;1.77;;
12367;SDS011;6248;49.812;6.620;2023-02-26T09:03:37;2.40;;;1.77;;
12367;SDS011;6248;49.812;6.620;2023-02-26T09:06:05;3.33;;;1.80;;
12367;SDS011;6248;49.812;6.620;2023-02-26T09:08:32;2.60;;;1.80;;
12367;SDS011;6248;49.812;6.620;2023-02-26T09:10:59;3.13;;;1.80;;
12367;SDS011;6248;49.812;6.620;2023-02-26T09:13:26;2.67;;;1.70;;
12367;SDS011;6248;49.812;6.620;2023-02-26T09:15:54;2.23;;;1.80;;
12367;SDS011;6248;49.812;6.620;2023-02-26T09:18:21;2.20;;;1.87;;
12367;SDS011;6248;49.812;6.620;2023-02-26T09:20:49;4.60;;;2.50;;
12367;SDS011;6248;49.812;6.620;2023-02-26T09:23:16;2.57;;;2.30;;
12367;SDS011;6248;49.812;6.620;2023-02-26T09:25:43;2.43;;;2.23;;
12367;SDS011;6248;49.812;6.620;2023-02-26T09:28:11;1.90;;;1.57;;
12367;SDS011;6248;49.812;6.620;2023-02-26T09:30:38;2.40;;;1.73;;
12367;SDS011;6248;49.812;6.620;2023-02-26T09:33:05;3.00;;;1.93;;
12367;SDS011;6248;49.812;6.620;2023-02-26T09:35:33;1.80;;;1.60;;
12367;SDS011;6248;49.812;6.620;2023-02-26T09:38:02;3.43;;;1.80;;
12367;SDS011;6248;49.812;6.620;2023-02-26T09:40:32;2.53;;;1.80;;
12367;SDS011;6248;49.812;6.620;2023-02-26T09:43:06;3.90;;;2.30;;
12367;SDS011;6248;49.812;6.620;2023-02-26T09:45:37;2.17;;;1.77;;
12367;SDS011;6248;49.812;6.620;2023-02-26T09:48:05;1.60;;;1.50;;
12367;SDS011;6248;49.812;6.620;2023-02-26T09:50:36;2.53;;;1.80;;
12367;SDS011;6248;49.812;6.620;2023-02-26T09:53:06;1.90;;;1.70;;
12367;SDS011;6248;49.812;6.620;2023-02-26T09:55:38;3.50;;;2.00;;
12367;SDS011;6248;49.812;6.620;2023-02-26T09:58:10;2.50;;;2.00;;
12367;SDS011;6248;49.812;6.620;2023-02-26T10:00:40;2.60;;;1.73;;
12367;SDS011;6248;49.812;6.620;2023-02-26T10:03:15;4.63;;;3.33;;
12367;SDS011;6248;49.812;6.620;2023-02-26T10:05:44;1.50;;;1.40;;
12367;SDS011;6248;49.812;6.620;2023-02-26T10:08:16;2.87;;;1.20;;
12367;SDS011;6248;49.812;6.620;2023-02-26T10:10:47;1.17;;;0.97;;
12367;SDS011;6248;49.812;6.620;2023-02-26T10:13:18;0.90;;;0.90;;
12367;SDS011;6248;49.812;6.620;2023-02-26T10:15:47;1.57;;;0.90;;
12367;SDS011;6248;49.812;6.620;2023-02-26T10:18:17;1.20;;;1.10;;
12367;SDS011;6248;49.812;6.620;2023-02-26T10:20:47;1.23;;;1.00;;
12367;SDS011;6248;49.812;6.620;2023-02-26T10:23:20;1.23;;;1.00;;
12367;SDS011;6248;49.812;6.620;2023-02-26T10:25:50;1.50;;;1.17;;
12367;SDS011;6248;49.812;6.620;2023-02-26T10:28:33;1.20;;;1.10;;
12367;SDS011;6248;49.812;6.620;2023-02-26T10:31:02;3.73;;;1.20;;
12367;SDS011;6248;49.812;6.620;2023-02-26T10:33:33;1.03;;;0.90;;
12367;SDS011;6248;49.812;6.620;2023-02-26T10:36:03;2.43;;;1.20;;
12367;SDS011;6248;49.812;6.620;2023-02-26T10:38:36;3.73;;;1.20;;
12367;SDS011;6248;49.812;6.620;2023-02-26T10:41:04;1.57;;;1.30;;
12367;SDS011;6248;49.812;6.620;2023-02-26T10:43:34;6.00;;;3.03;;
12367;SDS011;6248;49.812;6.620;2023-02-26T10:46:06;3.20;;;1.87;;
12367;SDS011;6248;49.812;6.620;2023-02-26T10:48:42;4.00;;;2.23;;
12367;SDS011;6248;49.812;6.620;2023-02-26T10:51:11;2.33;;;1.30;;
12367;SDS011;6248;49.812;6.620;2023-02-26T10:53:40;1.20;;;1.10;;
12367;SDS011;6248;49.812;6.620;2023-02-26T10:56:09;1.47;;;1.37;;
12367;SDS011;6248;49.812;6.620;2023-02-26T10:58:37;2.33;;;1.20;;
12367;SDS011;6248;49.812;6.620;2023-02-26T11:01:06;1.63;;;1.10;;
12367;SDS011;6248;49.812;6.620;2023-02-26T11:03:38;3.23;;;1.60;;
12367;SDS011;6248;49.812;6.620;2023-02-26T11:06:06;1.57;;;1.10;;
12367;SDS011;6248;49.812;6.620;2023-02-26T11:08:35;2.27;;;1.10;;
12367;SDS011;6248;49.812;6.620;2023-02-26T11:11:06;2.20;;;1.87;;
12367;SDS011;6248;49.812;6.620;2023-02-26T11:13:33;2.63;;;1.60;;
12367;SDS011;6248;49.812;6.620;2023-02-26T11:16:03;2.83;;;1.40;;
12367;SDS011;6248;49.812;6.620;2023-02-26T11:18:34;2.97;;;1.30;;
12367;SDS011;6248;49.812;6.620;2023-02-26T11:21:03;3.93;;;2.10;;
12367;SDS011;6248;49.812;6.620;2023-02-26T11:23:31;3.03;;;2.17;;
12367;SDS011;6248;49.812;6.620;2023-02-26T11:26:00;2.17;;;1.80;;
12367;SDS011;6248;49.812;6.620;2023-02-26T11:28:33;3.80;;;2.63;;
12367;SDS011;6248;49.812;6.620;2023-02-26T11:31:01;8.93;;;4.60;;
12367;SDS011;6248;49.812;6.620;2023-02-26T11:33:33;5.27;;;3.03;;
12367;SDS011;6248;49.812;6.620;2023-02-26T11:36:02;8.17;;;4.37;;
12367;SDS011;6248;49.812;6.620;2023-02-26T11:38:31;13.57;;;6.67;;
12367;SDS011;6248;49.812;6.620;2023-02-26T11:40:59;3.97;;;2.17;;
12367;SDS011;6248;49.812;6.620;2023-02-26T11:43:34;2.53;;;1.90;;
12367;SDS011;6248;49.812;6.620;2023-02-26T11:46:02;1.00;;;1.00;;
12367;SDS011;6248;49.812;6.620;2023-02-26T11:48:37;2.13;;;1.10;;
12367;SDS011;6248;49.812;6.620;2023-02-26T11:51:05;1.47;;;1.30;;
12367;SDS011;6248;49.812;6.620;2023-02-26T11:53:34;2.47;;;1.17;;
12367;SDS011;6248;49.812;6.620;2023-02-26T11:56:02;1.37;;;1.20;;
12367;SDS011;6248;49.812;6.620;2023-02-26T11:58:33;3.27;;;2.47;;
12367;SDS011;6248;49.812;6.620;2023-02-26T12:01:02;1.70;;;1.40;;
12367;SDS011;6248;49.812;6.620;2023-02-26T12:03:31;1.53;;;1.20;;
12367;SDS011;6248;49.812;6.620;2023-02-26T12:05:58;1.20;;;1.00;;
12367;SDS011;6248;49.812;6.620;2023-02-26T12:08:27;1.50;;;1.10;;
12367;SDS011;6248;49.812;6.620;2023-02-26T12:11:02;1.80;;;0.97;;
12367;SDS011;6248;49.812;6.620;2023-02-26T12:13:33;1.50;;;1.40;;
12367;SDS011;6248;49.812;6.620;2023-02-26T12:16:05;1.00;;;1.00;;
12367;SDS011;6248;49.812;6.620;2023-02-26T12:18:43;1.40;;;1.00;;
12367;SDS011;6248;49.812;6.620;2023-02-26T12:21:18;3.27;;;1.00;;
12367;SDS011;6248;49.812;6.620;2023-02-26T12:26:34;1.30;;;1.20;;
12367;SDS011;6248;49.812;6.620;2023-02-26T12:29:06;1.57;;;1.30;;
12367;SDS011;6248;49.812;6.620;2023-02-26T12:31:44;1.30;;;1.20;;
12367;SDS011;6248;49.812;6.620;2023-02-26T12:34:19;3.63;;;1.73;;
12367;SDS011;6248;49.812;6.620;2023-02-26T12:37:02;2.27;;;1.57;;
12367;SDS011;6248;49.812;6.620;2023-02-26T12:39:34;1.50;;;1.37;;
12367;SDS011;6248;49.812;6.620;2023-02-26T12:42:06;1.07;;;1.03;;
12367;SDS011;6248;49.812;6.620;2023-02-26T12:47:39;1.97;;;1.00;;
12367;SDS011;6248;49.812;6.620;2023-02-26T12:53:00;2.50;;;1.57;;
12367;SDS011;6248;49.812;6.620;2023-02-26T12:55:31;1.93;;;1.07;;
12367;SDS011;6248;49.812;6.620;2023-02-26T12:58:06;2.53;;;1.60;;
12367;SDS011;6248;49.812;6.620;2023-02-26T13:03:29;1.13;;;1.03;;
12367;SDS011;6248;49.812;6.620;2023-02-26T13:08:47;1.90;;;1.00;;
12367;SDS011;6248;49.812;6.620;2023-02-26T13:11:20;1.23;;;1.10;;
12367;SDS011;6248;49.812;6.620;2023-02-26T13:13:56;0.73;;;0.73;;
12367;SDS011;6248;49.812;6.620;2023-02-26T13:16:30;0.90;;;0.90;;
12367;SDS011;6248;49.812;6.620;2023-02-26T13:19:04;1.10;;;1.00;;
12367;SDS011;6248;49.812;6.620;2023-02-26T13:21:34;1.07;;;0.93;;
12367;SDS011;6248;49.812;6.620;2023-02-26T13:24:04;0.70;;;0.63;;
12367;SDS011;6248;49.812;6.620;2023-02-26T13:26:32;1.20;;;1.00;;
12367;SDS011;6248;49.812;6.620;2023-02-26T13:29:01;1.60;;;1.10;;
12367;SDS011;6248;49.812;6.620;2023-02-26T13:31:30;0.93;;;0.90;;
12367;SDS011;6248;49.812;6.620;2023-02-26T13:33:59;0.90;;;0.90;;
12367;SDS011;6248;49.812;6.620;2023-02-26T13:36:29;1.30;;;1.20;;
12367;SDS011;6248;49.812;6.620;2023-02-26T13:38:59;0.87;;;0.87;;
12367;SDS011;6248;49.812;6.620;2023-02-26T13:41:32;1.03;;;0.80;;
12367;SDS011;6248;49.812;6.620;2023-02-26T13:44:09;1.53;;;1.43;;
12367;SDS011;6248;49.812;6.620;2023-02-26T13:46:44;1.60;;;1.50;;
12367;SDS011;6248;49.812;6.620;2023-02-26T13:49:15;1.80;;;1.13;;
12367;SDS011;6248;49.812;6.620;2023-02-26T13:51:47;1.80;;;1.17;;
12367;SDS011;6248;49.812;6.620;2023-02-26T13:54:28;1.40;;;1.00;;
12367;SDS011;6248;49.812;6.620;2023-02-26T13:57:05;0.90;;;0.90;;
12367;SDS011;6248;49.812;6.620;2023-02-26T13:59:37;1.50;;;1.10;;
12367;SDS011;6248;49.812;6.620;2023-02-26T14:02:34;1.20;;;1.10;;
12367;SDS011;6248;49.812;6.620;2023-02-26T14:05:05;1.20;;;1.10;;
12367;SDS011;6248;49.812;6.620;2023-02-26T14:07:47;1.07;;;0.97;;
12367;SDS011;6248;49.812;6.620;2023-02-26T14:10:15;1.83;;;1.50;;
12367;SDS011;6248;49.812;6.620;2023-02-26T14:12:43;1.67;;;0.90;;
12367;SDS011;6248;49.812;6.620;2023-02-26T14:15:17;1.00;;;1.00;;
12367;SDS011;6248;49.812;6.620;2023-02-26T14:17:46;1.07;;;0.80;;
12367;SDS011;6248;49.812;6.620;2023-02-26T14:20:16;1.60;;;1.00;;
12367;SDS011;6248;49.812;6.620;2023-02-26T14:22:47;1.93;;;1.20;;
12367;SDS011;6248;49.812;6.620;2023-02-26T14:25:17;1.37;;;1.23;;
12367;SDS011;6248;49.812;6.620;2023-02-26T14:27:46;1.87;;;1.40;;
12367;SDS011;6248;49.812;6.620;2023-02-26T14:30:15;2.03;;;1.17;;
12367;SDS011;6248;49.812;6.620;2023-02-26T14:32:47;3.20;;;1.20;;
12367;SDS011;6248;49.812;6.620;2023-02-26T14:35:16;1.10;;;1.00;;
12367;SDS011;6248;49.812;6.620;2023-02-26T14:37:44;1.90;;;1.30;;
12367;SDS011;6248;49.812;6.620;2023-02-26T14:40:16;1.50;;;1.17;;
12367;SDS011;6248;49.812;6.620;2023-02-26T14:42:44;2.37;;;1.10;;
12367;SDS011;6248;49.812;6.620;2023-02-26T14:45:17;0.90;;;0.90;;
12367;SDS011;6248;49.812;6.620;2023-02-26T14:47:48;0.97;;;0.90;;
12367;SDS011;6248;49.812;6.620;2023-02-26T14:50:17;1.57;;;1.00;;
12367;SDS011;6248;49.812;6.620;2023-02-26T14:52:50;1.17;;;1.07;;
12367;SDS011;6248;49.812;6.620;2023-02-26T14:55:26;2.07;;;1.40;;
12367;SDS011;6248;49.812;6.620;2023-02-26T14:57:58;0.77;;;0.70;;
12367;SDS011;6248;49.812;6.620;2023-02-26T15:00:32;2.60;;;0.80;;
12367;SDS011;6248;49.812;6.620;2023-02-26T15:03:07;2.03;;;1.00;;
12367;SDS011;6248;49.812;6.620;2023-02-26T15:05:40;1.53;;;1.30;;
12367;SDS011;6248;49.812;6.620;2023-02-26T15:08:16;1.80;;;1.20;;
12367;SDS011;6248;49.812;6.620;2023-02-26T15:10:50;1.17;;;0.70;;
12367;SDS011;6248;49.812;6.620;2023-02-26T15:13:26;1.13;;;0.93;;
12367;SDS011;6248;49.812;6.620;2023-02-26T15:15:56;2.60;;;1.10;;
12367;SDS011;6248;49.812;6.620;2023-02-26T15:18:41;1.63;;;1.03;;
12367;SDS011;6248;49.812;6.620;2023-02-26T15:21:12;1.97;;;1.00;;
12367;SDS011;6248;49.812;6.620;2023-02-26T15:23:41;1.10;;;1.00;;
12367;SDS011;6248;49.812;6.620;2023-02-26T15:26:15;1.50;;;0.80;;
12367;SDS011;6248;49.812;6.620;2023-02-26T15:28:43;0.77;;;0.60;;
12367;SDS011;6248;49.812;6.620;2023-02-26T15:31:11;1.13;;;0.80;;
12367;SDS011;6248;49.812;6.620;2023-02-26T15:33:38;2.17;;;1.40;;